createdAt,value
2023-04-01T00:02:36.769Z,99015.28
2023-04-01T00:05:39.786Z,99017.50
2023-04-01T00:08:42.650Z,99009.31
2023-04-01T00:11:46.580Z,99008.13
2023-04-01T00:14:49.291Z,99013.50
2023-04-01T00:17:52.096Z,99019.69
2023-04-01T00:20:55.098Z,99014.09
2023-04-01T00:23:58.844Z,99004.91
2023-04-01T00:27:01.601Z,98999.91
2023-04-01T00:30:05.434Z,99010.50
2023-04-01T00:33:08.222Z,99010.50
2023-04-01T00:36:17.324Z,99012.91
2023-04-01T00:39:21.998Z,99010.50
2023-04-01T00:42:24.937Z,99013.91
2023-04-01T00:45:44.683Z,99004.91
2023-04-01T00:48:56.534Z,99003.91
2023-04-01T00:52:02.780Z,98993.13
2023-04-01T00:55:08.498Z,98989.34
2023-04-01T00:58:17.033Z,98976.75
2023-04-01T01:01:23.051Z,98983.94
2023-04-01T01:04:29.396Z,98981.34
2023-04-01T01:07:32.057Z,98977.16
2023-04-01T01:10:36.347Z,98972.78
2023-04-01T01:14:04.912Z,98967.59
2023-04-01T01:17:39.881Z,98965.97
2023-04-01T01:21:03.765Z,98954.22
2023-04-01T01:24:25.700Z,98962.19
2023-04-01T01:27:30.583Z,98969.19
2023-04-01T01:30:44.088Z,98971.16
2023-04-01T01:34:12.750Z,98972.16
2023-04-01T01:37:18.615Z,98970.38
2023-04-01T01:40:22.533Z,98960.00
2023-04-01T01:43:31.329Z,98968.38
2023-04-01T01:46:34.405Z,98971.38
2023-04-01T01:49:38.097Z,98980.91
2023-04-01T01:52:40.884Z,98974.13
2023-04-01T01:55:46.909Z,98974.34
2023-04-01T01:59:01.454Z,98980.50
2023-04-01T02:02:09.095Z,98973.38
2023-04-01T02:05:15.807Z,98967.19
2023-04-01T02:08:27.985Z,98973.97
2023-04-01T02:11:48.841Z,98976.31
2023-04-01T02:14:55.885Z,98975.72
2023-04-01T02:17:59.100Z,98974.72
2023-04-01T02:21:02.163Z,98984.91
2023-04-01T02:24:10.012Z,98985.69
2023-04-01T02:27:13.515Z,98980.88
2023-04-01T02:30:18.452Z,98984.84
2023-04-01T02:33:22.140Z,98973.47
2023-04-01T02:36:26.464Z,98981.25
2023-04-01T02:39:29.683Z,98969.72
2023-04-01T02:42:32.480Z,98966.69
2023-04-01T02:45:35.397Z,98973.53
2023-04-01T02:48:38.915Z,98957.94
2023-04-01T02:51:41.687Z,98963.31
2023-04-01T02:54:44.565Z,98954.13
2023-04-01T02:57:47.323Z,98943.97
2023-04-01T03:00:50.163Z,98944.16
2023-04-01T03:03:53.083Z,98940.75
2023-04-01T03:06:56.510Z,98934.34
2023-04-01T03:09:59.278Z,98937.16
2023-04-01T03:13:02.777Z,98934.97
2023-04-01T03:16:06.064Z,98918.19
2023-04-01T03:19:08.973Z,98913.41
2023-04-01T03:22:12.557Z,98914.63
2023-04-01T03:25:15.412Z,98910.84
2023-04-01T03:28:18.183Z,98910.84
2023-04-01T03:31:22.457Z,98906.06
2023-04-01T03:34:30.423Z,98902.28
2023-04-01T03:37:33.287Z,98909.03
2023-04-01T03:40:38.414Z,98900.63
2023-04-01T03:43:42.711Z,98883.31
2023-04-01T03:46:45.544Z,98877.72
2023-04-01T03:49:48.542Z,98881.31
2023-04-01T03:52:52.298Z,98886.31
2023-04-01T03:55:55.498Z,98885.91
2023-04-01T03:58:58.453Z,98884.13
2023-04-01T04:02:01.477Z,98875.72
2023-04-01T04:05:06.966Z,98880.91
2023-04-01T04:08:10.468Z,98879.13
2023-04-01T04:11:13.327Z,98876.72
2023-04-01T04:14:18.372Z,98871.34
2023-04-01T04:17:22.111Z,98874.13
2023-04-01T04:20:25.012Z,98878.31
2023-04-01T04:23:29.489Z,98877.88
2023-04-01T04:26:32.702Z,98878.84
2023-04-01T04:29:37.033Z,98881.84
2023-04-01T04:32:39.901Z,98891.09
2023-04-01T04:35:42.750Z,98900.41
2023-04-01T04:38:47.027Z,98901.19
2023-04-01T04:41:49.948Z,98910.63
2023-04-01T04:44:53.154Z,98912.97
2023-04-01T04:47:56.166Z,98909.78
2023-04-01T04:50:59.228Z,98911.72
2023-04-01T04:54:01.990Z,98909.94
2023-04-01T04:57:18.316Z,98924.75
2023-04-01T05:00:28.280Z,98913.84
2023-04-01T05:03:37.070Z,98908.88
2023-04-01T05:06:39.900Z,98906.69
2023-04-01T05:09:43.303Z,98896.00
2023-04-01T05:12:46.849Z,98896.66
2023-04-01T05:15:54.075Z,98891.09
2023-04-01T05:18:57.012Z,98897.47
2023-04-01T05:21:59.844Z,98895.69
2023-04-01T05:25:02.914Z,98896.09
2023-04-01T05:28:05.822Z,98898.03
2023-04-01T05:31:09.922Z,98909.22
2023-04-01T05:34:15.878Z,98915.19
2023-04-01T05:37:18.988Z,98916.97
2023-04-01T05:40:21.951Z,98922.56
2023-04-01T05:43:24.684Z,98931.03
2023-04-01T05:46:29.570Z,98920.13
2023-04-01T05:49:48.901Z,98930.13
2023-04-01T05:52:51.852Z,98928.75
2023-04-01T05:55:54.635Z,98934.16
2023-04-01T05:58:57.817Z,98939.16
2023-04-01T06:02:01.025Z,98937.75
2023-04-01T06:05:11.936Z,98943.56
2023-04-01T06:08:19.817Z,98940.38
2023-04-01T06:11:36.277Z,98946.16
2023-04-01T06:15:04.602Z,98944.78
2023-04-01T06:18:40.482Z,98942.22
2023-04-01T06:21:43.421Z,98957.66
2023-04-01T06:25:12.248Z,98950.56
2023-04-01T06:28:55.000Z,98961.13
2023-04-01T06:32:35.460Z,98953.94
2023-04-01T06:36:06.063Z,98970.75
2023-04-01T06:39:31.087Z,98975.31
2023-04-01T06:43:09.805Z,98975.53
2023-04-01T06:46:58.994Z,98976.97
2023-04-01T06:50:31.282Z,98977.34
2023-04-01T06:54:32.225Z,98978.94
2023-04-01T06:57:48.627Z,98986.53
2023-04-01T07:01:05.079Z,98987.69
2023-04-01T07:04:16.218Z,98984.69
2023-04-01T07:07:28.194Z,98991.63
2023-04-01T07:10:59.675Z,98986.50
2023-04-01T07:14:36.637Z,98982.16
2023-04-01T07:17:42.980Z,98987.53
2023-04-01T07:20:47.242Z,98985.34
2023-04-01T07:23:51.842Z,98981.94
2023-04-01T07:27:15.833Z,98985.53
2023-04-01T07:30:23.246Z,98993.72
2023-04-01T07:33:38.436Z,98997.31
2023-04-01T07:37:15.644Z,98999.91
2023-04-01T07:40:18.599Z,98996.91
2023-04-01T07:43:41.383Z,99004.50
2023-04-01T07:47:32.627Z,99006.69
2023-04-01T07:50:47.110Z,99006.09
2023-04-01T07:54:09.125Z,99012.69
2023-04-01T07:57:35.094Z,98994.69
2023-04-01T08:00:57.630Z,99001.00
2023-04-01T08:04:47.636Z,98993.66
2023-04-01T08:08:00.906Z,99002.63
2023-04-01T08:11:53.552Z,99004.13
2023-04-01T08:15:31.127Z,99003.56
2023-04-01T08:19:25.631Z,99007.25
2023-04-01T08:22:42.940Z,99007.81
2023-04-01T08:26:06.503Z,99000.84
2023-04-01T08:29:19.498Z,99000.44
2023-04-01T08:32:47.401Z,99001.97
2023-04-01T08:35:59.905Z,99008.94
2023-04-01T08:39:13.693Z,99002.88
2023-04-01T08:42:47.220Z,98997.19
2023-04-01T08:46:10.413Z,99004.19
2023-04-01T08:49:51.005Z,99002.75
2023-04-01T08:53:29.016Z,98996.94
2023-04-01T08:56:43.153Z,99015.31
2023-04-01T09:00:28.101Z,98990.63
2023-04-01T09:04:06.507Z,98997.72
2023-04-01T09:07:21.725Z,98997.34
2023-04-01T09:10:37.181Z,99011.66
2023-04-01T09:14:28.606Z,99002.16
2023-04-01T09:18:14.983Z,98992.91
2023-04-01T09:21:21.909Z,99006.81
2023-04-01T09:24:39.279Z,99018.53
2023-04-01T09:27:57.247Z,99025.69
2023-04-01T09:31:03.010Z,99023.66
2023-04-01T09:34:34.274Z,99018.91
2023-04-01T09:37:45.698Z,99021.06
2023-04-01T09:41:01.400Z,99017.97
2023-04-01T09:44:43.329Z,99021.91
2023-04-01T09:48:04.937Z,99016.22
2023-04-01T09:51:32.896Z,99016.00
2023-04-01T09:55:00.029Z,99008.00
2023-04-01T09:58:23.128Z,99009.56
2023-04-01T10:02:33.578Z,99016.31
2023-04-01T10:05:55.398Z,99014.00
2023-04-01T10:09:23.194Z,99006.41
2023-04-01T10:13:13.104Z,99014.75
2023-04-01T10:16:37.345Z,99020.44
2023-04-01T10:20:05.634Z,99029.59
2023-04-01T10:23:41.863Z,99020.38
2023-04-01T10:26:51.079Z,99032.34
2023-04-01T10:30:53.906Z,99026.38
2023-04-01T10:34:25.454Z,99027.59
2023-04-01T10:37:58.016Z,99027.09
2023-04-01T10:41:17.463Z,99024.63
2023-04-01T10:45:21.103Z,99035.78
2023-04-01T10:48:45.317Z,99032.28
2023-04-01T10:52:24.825Z,99037.81
2023-04-01T10:56:10.483Z,99035.41
2023-04-01T11:00:00.255Z,99029.31
2023-04-01T11:03:56.219Z,99038.84
2023-04-01T11:07:29.225Z,99032.97
2023-04-01T11:11:10.455Z,99026.38
2023-04-01T11:14:50.914Z,99032.28
2023-04-01T11:18:32.917Z,99033.69
2023-04-01T11:22:10.671Z,99030.38
2023-04-01T11:25:38.800Z,99034.63
2023-04-01T11:29:21.878Z,99027.88
2023-04-01T11:32:35.054Z,99021.66
2023-04-01T11:35:47.796Z,99017.22
2023-04-01T11:39:15.731Z,99025.22
2023-04-01T11:42:56.077Z,99019.75
2023-04-01T11:46:25.130Z,99021.63
2023-04-01T11:49:51.056Z,99025.78
2023-04-01T11:53:18.634Z,99030.63
2023-04-01T11:56:45.772Z,99034.16
2023-04-01T12:00:14.300Z,99036.97
2023-04-01T12:03:47.854Z,99044.75
2023-04-01T12:06:56.342Z,99037.16
2023-04-01T12:10:35.046Z,99044.31
2023-04-01T12:13:49.216Z,99042.28
2023-04-01T12:17:27.328Z,99036.47
2023-04-01T12:20:45.402Z,99035.94
2023-04-01T12:24:00.056Z,99037.88
2023-04-01T12:27:30.450Z,99026.53
2023-04-01T12:30:52.554Z,99027.25
2023-04-01T12:34:07.642Z,99029.44
2023-04-01T12:37:36.588Z,99025.13
2023-04-01T12:41:01.076Z,99018.88
2023-04-01T12:44:19.147Z,99022.16
2023-04-01T12:47:29.284Z,99021.44
2023-04-01T12:50:47.833Z,99026.97
2023-04-01T12:54:08.645Z,99019.72
2023-04-01T12:57:45.817Z,99018.13
2023-04-01T13:00:54.353Z,99022.91
2023-04-01T13:04:06.212Z,99018.47
2023-04-01T13:07:22.758Z,99015.91
2023-04-01T13:10:34.567Z,99019.03
2023-04-01T13:14:00.772Z,99023.75
2023-04-01T13:17:21.926Z,99027.00
2023-04-01T13:20:40.310Z,99024.78
2023-04-01T13:24:10.349Z,99030.16
2023-04-01T13:27:23.374Z,99022.00
2023-04-01T13:30:31.814Z,99024.59
2023-04-01T13:34:00.900Z,99016.09
2023-04-01T13:37:36.968Z,99032.22
2023-04-01T13:41:13.580Z,99030.94
2023-04-01T13:44:30.086Z,99015.91
2023-04-01T13:47:52.543Z,99029.97
2023-04-01T13:51:07.288Z,99029.13
2023-04-01T13:54:21.950Z,99028.69
2023-04-01T13:57:55.967Z,99065.88
2023-04-01T14:01:29.554Z,99045.59
2023-04-01T14:04:44.847Z,99040.84
2023-04-01T14:08:09.118Z,99011.59
2023-04-01T14:11:53.802Z,99019.75
2023-04-01T14:15:26.455Z,99011.25
2023-04-01T14:18:51.642Z,99010.22
2023-04-01T14:22:39.565Z,99013.53
2023-04-01T14:26:03.504Z,99019.00
2023-04-01T14:29:24.175Z,99008.66
2023-04-01T14:32:35.996Z,99001.66
2023-04-01T14:36:05.945Z,98999.19
2023-04-01T14:39:23.697Z,98982.72
2023-04-01T14:42:29.219Z,98987.81
2023-04-01T14:46:01.049Z,98995.72
2023-04-01T14:49:15.490Z,99017.16
2023-04-01T14:52:32.990Z,99018.72
2023-04-01T14:55:44.586Z,99020.97
2023-04-01T14:58:51.767Z,99029.88
2023-04-01T15:02:02.398Z,99042.72
2023-04-01T15:05:43.741Z,99042.03
2023-04-01T15:08:55.985Z,99044.16
2023-04-01T15:12:15.658Z,99045.91
2023-04-01T15:15:46.362Z,99042.97
2023-04-01T15:19:10.520Z,99043.44
2023-04-01T15:22:54.320Z,99049.09
2023-04-01T15:26:12.841Z,99050.59
2023-04-01T15:29:40.631Z,99052.31
2023-04-01T15:33:12.356Z,99040.94
2023-04-01T15:36:48.819Z,99043.13
2023-04-01T15:40:07.164Z,99042.97
2023-04-01T15:43:28.985Z,99045.72
2023-04-01T15:46:41.902Z,99046.13
2023-04-01T15:49:56.609Z,99052.34
2023-04-01T15:53:40.605Z,99056.13
2023-04-01T15:57:13.247Z,99048.91
2023-04-01T16:00:43.799Z,99061.50
2023-04-01T16:04:00.859Z,99054.72
2023-04-01T16:07:12.495Z,99070.13
2023-04-01T16:10:18.191Z,99076.91
2023-04-01T16:13:39.413Z,99078.97
2023-04-01T16:16:52.637Z,99078.75
2023-04-01T16:20:03.773Z,99082.16
2023-04-01T16:23:40.404Z,99095.72
2023-04-01T16:26:54.347Z,99100.53
2023-04-01T16:30:04.378Z,99101.94
2023-04-01T16:33:22.435Z,99100.34
2023-04-01T16:36:57.077Z,99094.72
2023-04-01T16:40:21.854Z,99087.06
2023-04-01T16:43:31.800Z,99092.47
2023-04-01T16:46:47.834Z,99081.09
2023-04-01T16:50:11.514Z,99088.09
2023-04-01T16:53:16.581Z,99097.31
2023-04-01T16:56:39.173Z,99090.72
2023-04-01T16:59:46.664Z,99109.75
2023-04-01T17:02:52.961Z,99104.34
2023-04-01T17:06:04.662Z,99102.97
2023-04-01T17:09:38.309Z,99112.75
2023-04-01T17:13:19.121Z,99104.94
2023-04-01T17:17:03.947Z,99112.72
2023-04-01T17:20:41.451Z,99118.09
2023-04-01T17:24:22.762Z,99119.25
2023-04-01T17:27:52.423Z,99117.81
2023-04-01T17:31:19.886Z,99126.19
2023-04-01T17:34:29.126Z,99134.13
2023-04-01T17:38:00.992Z,99140.44
2023-04-01T17:41:27.744Z,99147.56
2023-04-01T17:44:34.033Z,99145.56
2023-04-01T17:47:49.115Z,99149.91
2023-04-01T17:50:54.908Z,99150.66
2023-04-01T17:54:25.616Z,99163.56
2023-04-01T17:57:45.181Z,99164.31
2023-04-01T18:01:07.296Z,99169.06
2023-04-01T18:04:51.592Z,99167.22
2023-04-01T18:08:10.103Z,99174.97
2023-04-01T18:11:53.880Z,99175.72
2023-04-01T18:15:20.580Z,99176.44
2023-04-01T18:18:45.672Z,99165.25
2023-04-01T18:21:53.338Z,99177.16
2023-04-01T18:25:14.655Z,99183.72
2023-04-01T18:28:38.664Z,99187.84
2023-04-01T18:31:47.056Z,99176.44
2023-04-01T18:35:02.808Z,99184.31
2023-04-01T18:38:20.050Z,99181.81
2023-04-01T18:42:01.476Z,99195.72
2023-04-01T18:45:35.095Z,99197.50
2023-04-01T18:49:02.130Z,99201.75
2023-04-01T18:52:28.882Z,99210.06
2023-04-01T18:55:47.703Z,99195.19
2023-04-01T18:59:07.196Z,99207.94
2023-04-01T19:02:30.038Z,99206.88
2023-04-01T19:05:37.886Z,99213.13
2023-04-01T19:08:42.023Z,99220.19
2023-04-01T19:12:08.811Z,99210.47
2023-04-01T19:15:11.848Z,99224.53
2023-04-01T19:18:23.525Z,99216.94
2023-04-01T19:21:38.108Z,99216.88
2023-04-01T19:24:49.838Z,99221.88
2023-04-01T19:28:02.267Z,99231.59
2023-04-01T19:31:20.777Z,99234.44
2023-04-01T19:34:32.800Z,99239.84
2023-04-01T19:37:45.606Z,99235.50
2023-04-01T19:41:25.990Z,99237.09
2023-04-01T19:45:07.688Z,99243.78
2023-04-01T19:48:33.007Z,99242.13
2023-04-01T19:51:48.810Z,99239.97
2023-04-01T19:54:57.212Z,99244.16
2023-04-01T19:58:27.319Z,99243.72
2023-04-01T20:01:47.156Z,99245.44
2023-04-01T20:04:57.652Z,99245.78
2023-04-01T20:08:09.944Z,99243.00
2023-04-01T20:11:31.468Z,99245.97
2023-04-01T20:14:48.880Z,99239.97
2023-04-01T20:17:54.967Z,99237.56
2023-04-01T20:21:03.172Z,99243.84
2023-04-01T20:24:15.332Z,99237.91
2023-04-01T20:27:25.566Z,99246.44
2023-04-01T20:30:47.485Z,99237.63
2023-04-01T20:34:08.657Z,99238.78
2023-04-01T20:37:33.235Z,99243.25
2023-04-01T20:40:39.958Z,99240.75
2023-04-01T20:43:56.888Z,99242.97
2023-04-01T20:47:37.174Z,99241.66
2023-04-01T20:50:53.209Z,99244.03
2023-04-01T20:54:43.739Z,99254.66
2023-04-01T20:58:18.248Z,99264.75
2023-04-01T21:01:32.972Z,99274.88
2023-04-01T21:05:09.652Z,99263.84
2023-04-01T21:08:26.094Z,99265.72
2023-04-01T21:11:50.821Z,99257.16
2023-04-01T21:15:04.269Z,99277.03
2023-04-01T21:18:37.597Z,99273.72
2023-04-01T21:21:48.216Z,99269.16
2023-04-01T21:25:16.997Z,99285.03
2023-04-01T21:28:22.728Z,99285.66
2023-04-01T21:31:37.287Z,99281.53
2023-04-01T21:34:55.936Z,99287.88
2023-04-01T21:38:10.472Z,99276.09
2023-04-01T21:41:21.919Z,99292.16
2023-04-01T21:44:47.739Z,99289.06
2023-04-01T21:48:04.829Z,99288.53
2023-04-01T21:51:43.845Z,99292.72
2023-04-01T21:55:23.955Z,99310.25
2023-04-01T21:58:51.431Z,99302.88
2023-04-01T22:02:21.276Z,99311.03
2023-04-01T22:05:28.293Z,99310.50
2023-04-01T22:08:56.281Z,99311.13
2023-04-01T22:12:30.510Z,99305.16
2023-04-01T22:16:08.598Z,99305.34
2023-04-01T22:19:21.082Z,99308.19
2023-04-01T22:22:35.693Z,99317.84
2023-04-01T22:26:12.184Z,99318.38
2023-04-01T22:29:29.586Z,99314.63
2023-04-01T22:32:46.625Z,99317.03
2023-04-01T22:36:05.845Z,99311.84
2023-04-01T22:39:14.204Z,99328.28
2023-04-01T22:42:25.364Z,99325.34
2023-04-01T22:46:05.570Z,99324.47
2023-04-01T22:49:30.477Z,99326.97
2023-04-01T22:52:40.061Z,99324.03
2023-04-01T22:55:53.693Z,99321.28
2023-04-01T22:59:18.946Z,99322.72
2023-04-01T23:02:29.869Z,99324.66
2023-04-01T23:05:35.096Z,99318.41
2023-04-01T23:08:38.204Z,99317.41
2023-04-01T23:11:52.873Z,99318.16
2023-04-01T23:15:00.980Z,99324.84
2023-04-01T23:18:13.925Z,99331.38
2023-04-01T23:21:35.030Z,99342.69
2023-04-01T23:24:46.256Z,99342.44
2023-04-01T23:27:57.528Z,99341.22
2023-04-01T23:31:00.492Z,99344.88
2023-04-01T23:34:34.816Z,99352.47
2023-04-01T23:37:37.533Z,99348.25
2023-04-01T23:40:41.809Z,99354.13
2023-04-01T23:43:46.601Z,99355.94
2023-04-01T23:46:50.461Z,99352.59
2023-04-01T23:49:56.167Z,99350.22
2023-04-01T23:53:04.187Z,99352.25
2023-04-01T23:56:07.482Z,99355.22
2023-04-01T23:59:40.914Z,99364.88
